createdAt,value
2023-02-25T00:02:04.383Z,10.47
2023-02-25T00:04:07.717Z,14.70
2023-02-25T00:06:13.703Z,13.03
2023-02-25T00:08:17.212Z,17.77
2023-02-25T00:10:20.272Z,10.97
2023-02-25T00:12:23.053Z,16.80
2023-02-25T00:14:27.313Z,21.97
2023-02-25T00:16:30.394Z,10.17
2023-02-25T00:18:33.350Z,12.67
2023-02-25T00:20:36.131Z,11.43
2023-02-25T00:22:38.901Z,13.63
2023-02-25T00:24:41.817Z,13.57
2023-02-25T00:26:45.256Z,14.33
2023-02-25T00:28:48.368Z,10.33
2023-02-25T00:30:52.645Z,13.60
2023-02-25T00:32:55.490Z,10.00
2023-02-25T00:34:58.433Z,11.07
2023-02-25T00:37:01.237Z,13.03
2023-02-25T00:39:04.226Z,13.80
2023-02-25T00:41:11.815Z,16.50
2023-02-25T00:43:14.738Z,10.97
2023-02-25T00:45:17.755Z,22.00
2023-02-25T00:47:21.964Z,14.67
2023-02-25T00:49:32.118Z,11.77
2023-02-25T00:51:35.665Z,14.13
2023-02-25T00:53:38.857Z,15.40
2023-02-25T00:55:42.030Z,12.37
2023-02-25T00:57:44.879Z,15.37
2023-02-25T00:59:47.787Z,14.20
2023-02-25T01:01:50.762Z,11.57
2023-02-25T01:03:56.987Z,12.57
2023-02-25T01:06:00.160Z,13.50
2023-02-25T01:08:03.262Z,13.67
2023-02-25T01:10:07.266Z,14.93
2023-02-25T01:12:10.186Z,11.97
2023-02-25T01:14:15.450Z,16.63
2023-02-25T01:16:21.344Z,19.33
2023-02-25T01:18:24.422Z,15.63
2023-02-25T01:20:29.918Z,18.23
2023-02-25T01:22:32.792Z,12.70
2023-02-25T01:24:35.671Z,15.57
2023-02-25T01:26:41.378Z,18.23
2023-02-25T01:28:44.272Z,14.27
2023-02-25T01:30:47.560Z,9.07
2023-02-25T01:32:51.052Z,18.20
2023-02-25T01:34:53.888Z,17.33
2023-02-25T01:36:58.670Z,9.90
2023-02-25T01:39:02.772Z,11.17
2023-02-25T01:41:05.779Z,14.27
2023-02-25T01:43:15.444Z,17.70
2023-02-25T01:45:35.334Z,11.60
2023-02-25T01:47:41.091Z,13.00
2023-02-25T01:49:47.267Z,10.17
2023-02-25T01:51:53.133Z,11.97
2023-02-25T01:53:58.737Z,11.33
2023-02-25T01:56:04.133Z,16.17
2023-02-25T01:58:07.163Z,13.53
2023-02-25T02:00:16.134Z,18.93
2023-02-25T02:02:22.517Z,11.00
2023-02-25T02:04:27.530Z,9.80
2023-02-25T02:06:35.372Z,14.47
2023-02-25T02:08:38.858Z,14.57
2023-02-25T02:10:43.078Z,11.53
2023-02-25T02:12:48.642Z,11.47
2023-02-25T02:14:51.674Z,17.03
2023-02-25T02:17:16.760Z,14.97
2023-02-25T02:19:33.183Z,16.67
2023-02-25T02:21:51.456Z,14.87
2023-02-25T02:24:22.713Z,12.17
2023-02-25T02:26:50.064Z,12.17
2023-02-25T02:29:23.236Z,18.47
2023-02-25T02:31:35.691Z,10.30
2023-02-25T02:33:47.051Z,11.90
2023-02-25T02:35:58.137Z,12.07
2023-02-25T02:38:12.831Z,14.47
2023-02-25T02:40:32.180Z,12.20
2023-02-25T02:42:41.736Z,11.77
2023-02-25T02:44:52.319Z,11.00
2023-02-25T02:47:02.185Z,11.20
2023-02-25T02:49:10.472Z,13.33
2023-02-25T02:51:18.422Z,19.60
2023-02-25T02:53:28.098Z,18.20
2023-02-25T02:55:35.593Z,11.70
2023-02-25T02:57:42.293Z,10.97
2023-02-25T02:59:51.208Z,10.37
2023-02-25T03:01:59.430Z,12.50
2023-02-25T03:04:05.965Z,7.57
2023-02-25T03:06:12.369Z,15.30
2023-02-25T03:08:19.779Z,15.10
2023-02-25T03:10:23.329Z,12.17
2023-02-25T03:12:26.522Z,22.33
2023-02-25T03:14:29.326Z,14.00
2023-02-25T03:16:38.119Z,17.37
2023-02-25T03:18:48.684Z,12.53
2023-02-25T03:20:53.084Z,14.50
2023-02-25T03:23:01.109Z,11.27
2023-02-25T03:25:10.682Z,13.17
2023-02-25T03:27:28.973Z,13.80
2023-02-25T03:29:31.714Z,10.33
2023-02-25T03:31:40.509Z,7.47
2023-02-25T03:33:49.193Z,12.83
2023-02-25T03:35:54.718Z,13.07
2023-02-25T03:38:02.867Z,11.33
2023-02-25T03:40:11.635Z,9.47
2023-02-25T03:42:19.229Z,6.20
2023-02-25T03:44:26.493Z,15.60
2023-02-25T03:46:30.598Z,8.67
2023-02-25T03:48:36.363Z,8.33
2023-02-25T03:50:46.031Z,8.43
2023-02-25T03:52:48.993Z,16.63
2023-02-25T03:54:52.897Z,10.50
2023-02-25T03:56:56.246Z,11.93
2023-02-25T03:58:59.111Z,14.57
2023-02-25T04:01:04.989Z,9.90
2023-02-25T04:03:07.882Z,9.53
2023-02-25T04:05:11.215Z,12.17
2023-02-25T04:07:15.428Z,12.70
2023-02-25T04:09:18.312Z,13.63
2023-02-25T04:11:23.470Z,8.50
2023-02-25T04:13:26.277Z,6.87
2023-02-25T04:15:29.372Z,13.10
2023-02-25T04:17:32.217Z,13.53
2023-02-25T04:19:35.021Z,12.00
2023-02-25T04:21:39.557Z,16.33
2023-02-25T04:23:43.805Z,11.50
2023-02-25T04:25:46.766Z,10.23
2023-02-25T04:27:49.684Z,9.23
2023-02-25T04:29:52.589Z,9.87
2023-02-25T04:31:55.524Z,8.30
2023-02-25T04:33:58.487Z,8.50
2023-02-25T04:36:01.284Z,10.33
2023-02-25T04:38:04.496Z,6.83
2023-02-25T04:40:15.096Z,11.33
2023-02-25T04:42:18.085Z,7.20
2023-02-25T04:44:20.875Z,10.07
2023-02-25T04:46:24.110Z,5.83
2023-02-25T04:48:27.761Z,9.30
2023-02-25T04:50:30.609Z,6.93
2023-02-25T04:52:33.508Z,13.27
2023-02-25T04:54:36.328Z,7.70
2023-02-25T04:56:40.738Z,11.40
2023-02-25T04:58:43.584Z,5.33
2023-02-25T05:00:48.943Z,8.00
2023-02-25T05:02:52.325Z,9.80
2023-02-25T05:04:55.154Z,9.93
2023-02-25T05:06:58.139Z,4.83
2023-02-25T05:09:01.086Z,5.43
2023-02-25T05:11:05.447Z,10.97
2023-02-25T05:13:09.600Z,5.57
2023-02-25T05:15:13.364Z,7.70
2023-02-25T05:17:16.515Z,9.13
2023-02-25T05:19:22.793Z,10.93
2023-02-25T05:21:27.766Z,11.10
2023-02-25T05:23:30.574Z,8.10
2023-02-25T05:25:33.768Z,5.77
2023-02-25T05:27:36.896Z,10.63
2023-02-25T05:29:41.373Z,6.43
2023-02-25T05:31:44.501Z,8.37
2023-02-25T05:33:47.429Z,11.17
2023-02-25T05:35:50.209Z,6.97
2023-02-25T05:37:52.992Z,16.53
2023-02-25T05:39:55.769Z,9.23
2023-02-25T05:41:58.531Z,9.00
2023-02-25T05:44:01.415Z,13.53
2023-02-25T05:46:11.544Z,11.13
2023-02-25T05:48:14.343Z,7.30
2023-02-25T05:50:17.301Z,11.43
2023-02-25T05:52:20.182Z,5.77
2023-02-25T05:54:22.983Z,12.70
2023-02-25T05:56:30.848Z,12.50
2023-02-25T05:58:35.855Z,12.27
2023-02-25T06:00:39.963Z,11.73
2023-02-25T06:02:45.245Z,9.80
2023-02-25T06:04:48.399Z,13.47
2023-02-25T06:06:51.898Z,11.87
2023-02-25T06:08:54.788Z,14.07
2023-02-25T06:10:57.807Z,6.53
2023-02-25T06:13:00.901Z,6.63
2023-02-25T06:15:03.669Z,7.70
2023-02-25T06:17:06.562Z,13.37
2023-02-25T06:19:12.152Z,9.80
2023-02-25T06:21:16.316Z,10.33
2023-02-25T06:23:19.311Z,6.53
2023-02-25T06:25:22.180Z,8.27
2023-02-25T06:27:25.102Z,10.57
2023-02-25T06:29:28.003Z,10.83
2023-02-25T06:31:30.929Z,7.23
2023-02-25T06:33:33.722Z,7.10
2023-02-25T06:35:38.055Z,8.90
2023-02-25T06:37:40.845Z,6.93
2023-02-25T06:39:43.673Z,10.73
2023-02-25T06:41:46.927Z,9.83
2023-02-25T06:43:52.101Z,7.70
2023-02-25T06:45:55.061Z,8.23
2023-02-25T06:47:58.708Z,4.90
2023-02-25T06:50:02.770Z,7.00
2023-02-25T06:52:07.104Z,6.00
2023-02-25T06:54:09.954Z,5.20
2023-02-25T06:56:14.251Z,10.47
2023-02-25T06:58:18.001Z,4.63
2023-02-25T07:00:21.233Z,4.90
2023-02-25T07:02:24.022Z,6.43
2023-02-25T07:04:26.906Z,5.73
2023-02-25T07:06:29.775Z,7.37
2023-02-25T07:08:34.210Z,6.37
2023-02-25T07:10:37.282Z,5.03
2023-02-25T07:12:40.154Z,7.97
2023-02-25T07:14:43.021Z,5.83
2023-02-25T07:16:45.868Z,5.90
2023-02-25T07:18:48.822Z,9.40
2023-02-25T07:20:51.743Z,7.43
2023-02-25T07:22:54.691Z,5.27
2023-02-25T07:24:58.939Z,8.80
2023-02-25T07:27:01.842Z,4.53
2023-02-25T07:29:06.573Z,8.53
2023-02-25T07:31:12.456Z,2.33
2023-02-25T07:33:15.534Z,2.37
2023-02-25T07:35:18.444Z,6.43
2023-02-25T07:37:21.310Z,9.10
2023-02-25T07:39:26.042Z,6.70
2023-02-25T07:41:30.378Z,4.03
2023-02-25T07:43:33.238Z,2.93
2023-02-25T07:45:36.185Z,5.00
2023-02-25T07:47:39.300Z,5.67
2023-02-25T07:49:42.091Z,4.77
2023-02-25T07:51:44.856Z,6.43
2023-02-25T07:53:48.947Z,2.40
2023-02-25T07:55:51.858Z,5.73
2023-02-25T07:57:55.920Z,5.50
2023-02-25T07:59:59.503Z,4.23
2023-02-25T08:02:02.366Z,3.00
2023-02-25T08:04:07.369Z,4.00
2023-02-25T08:06:10.179Z,4.27
2023-02-25T08:08:13.431Z,3.63
2023-02-25T08:10:16.226Z,3.83
2023-02-25T08:12:18.998Z,4.83
2023-02-25T08:14:23.424Z,7.93
2023-02-25T08:16:26.234Z,6.07
2023-02-25T08:18:29.545Z,6.37
2023-02-25T08:20:32.357Z,11.13
2023-02-25T08:22:35.246Z,5.50
2023-02-25T08:24:38.255Z,4.60
2023-02-25T08:26:41.574Z,2.53
2023-02-25T08:28:45.230Z,9.03
2023-02-25T08:30:49.500Z,4.87
2023-02-25T08:32:52.466Z,3.10
2023-02-25T08:34:56.532Z,3.27
2023-02-25T08:36:59.760Z,5.53
2023-02-25T08:39:02.674Z,4.13
2023-02-25T08:41:06.273Z,2.77
2023-02-25T08:43:09.447Z,2.90
2023-02-25T08:45:12.614Z,2.03
2023-02-25T08:47:17.680Z,1.17
2023-02-25T08:49:20.620Z,2.10
2023-02-25T08:51:25.385Z,1.40
2023-02-25T08:53:28.396Z,3.30
2023-02-25T08:55:32.522Z,2.23
2023-02-25T08:57:35.377Z,1.40
2023-02-25T08:59:38.951Z,1.50
2023-02-25T09:01:45.654Z,1.57
2023-02-25T09:03:52.341Z,4.40
2023-02-25T09:05:56.245Z,1.87
2023-02-25T09:07:59.154Z,3.87
2023-02-25T09:10:03.516Z,1.37
2023-02-25T09:12:07.223Z,1.27
2023-02-25T09:14:10.661Z,6.53
2023-02-25T09:16:17.220Z,3.73
2023-02-25T09:18:20.256Z,1.40
2023-02-25T09:20:25.846Z,1.27
2023-02-25T09:22:28.678Z,1.80
2023-02-25T09:24:33.377Z,0.93
2023-02-25T09:26:36.473Z,1.53
2023-02-25T09:28:39.339Z,2.87
2023-02-25T09:30:42.241Z,1.47
2023-02-25T09:32:45.997Z,1.37
2023-02-25T09:34:50.071Z,2.63
2023-02-25T09:36:54.356Z,1.60
2023-02-25T09:38:58.752Z,2.53
2023-02-25T09:41:01.494Z,2.60
2023-02-25T09:43:12.514Z,1.70
2023-02-25T09:45:18.969Z,3.97
2023-02-25T09:47:28.351Z,1.87
2023-02-25T09:49:35.972Z,1.63
2023-02-25T09:51:44.425Z,1.30
2023-02-25T09:53:55.114Z,2.80
2023-02-25T09:55:58.904Z,5.20
2023-02-25T09:58:08.859Z,3.57
2023-02-25T10:00:18.847Z,2.50
2023-02-25T10:02:28.516Z,2.30
2023-02-25T10:04:35.528Z,2.67
2023-02-25T10:06:44.144Z,3.53
2023-02-25T10:08:57.269Z,1.77
2023-02-25T10:11:05.598Z,1.90
2023-02-25T10:13:21.898Z,3.60
2023-02-25T10:15:35.987Z,1.43
2023-02-25T10:17:47.143Z,2.27
2023-02-25T10:20:18.481Z,4.10
2023-02-25T10:22:34.430Z,2.63
2023-02-25T10:24:44.633Z,3.00
2023-02-25T10:26:50.536Z,2.30
2023-02-25T10:28:56.148Z,1.77
2023-02-25T10:31:04.870Z,1.60
2023-02-25T10:33:16.945Z,1.73
2023-02-25T10:35:24.013Z,1.10
2023-02-25T10:37:31.799Z,2.83
2023-02-25T10:39:36.342Z,9.70
2023-02-25T10:41:40.682Z,3.07
2023-02-25T10:43:44.460Z,1.47
2023-02-25T10:45:50.749Z,2.83
2023-02-25T10:48:04.280Z,2.90
2023-02-25T10:50:19.497Z,5.77
2023-02-25T10:52:22.383Z,3.23
2023-02-25T10:54:25.920Z,4.43
2023-02-25T10:56:33.507Z,1.80
2023-02-25T10:58:41.456Z,2.40
2023-02-25T11:00:44.742Z,5.80
2023-02-25T11:02:52.242Z,2.13
2023-02-25T11:04:56.416Z,1.80
2023-02-25T11:06:59.528Z,2.20
2023-02-25T11:09:04.957Z,1.27
2023-02-25T11:11:17.066Z,2.13
2023-02-25T11:13:29.822Z,2.33
2023-02-25T11:15:45.606Z,2.43
2023-02-25T11:17:49.388Z,2.10
2023-02-25T11:19:59.378Z,2.63
2023-02-25T11:22:10.575Z,1.83
2023-02-25T11:24:16.620Z,2.17
2023-02-25T11:26:30.700Z,1.43
2023-02-25T11:28:37.941Z,2.10
2023-02-25T11:30:42.323Z,1.10
2023-02-25T11:32:49.899Z,2.70
2023-02-25T11:34:57.242Z,1.30
2023-02-25T11:37:26.332Z,4.83
2023-02-25T11:39:30.867Z,2.37
2023-02-25T11:41:34.079Z,5.97
2023-02-25T11:43:41.006Z,1.77
2023-02-25T11:45:53.484Z,3.20
2023-02-25T11:47:56.490Z,3.03
2023-02-25T11:50:24.980Z,2.83
2023-02-25T11:52:38.447Z,4.93
2023-02-25T11:54:52.578Z,3.70
2023-02-25T11:57:02.543Z,1.53
2023-02-25T11:59:23.985Z,2.73
2023-02-25T12:01:40.280Z,2.13
2023-02-25T12:04:05.417Z,2.00
2023-02-25T12:06:18.851Z,2.83
2023-02-25T12:08:45.996Z,5.80
2023-02-25T12:11:31.705Z,1.80
2023-02-25T12:14:13.566Z,1.50
2023-02-25T12:16:53.303Z,3.17
2023-02-25T12:19:21.062Z,1.13
2023-02-25T12:21:53.541Z,2.00
2023-02-25T12:24:20.807Z,3.23
2023-02-25T12:26:33.338Z,0.70
2023-02-25T12:29:01.553Z,1.23
2023-02-25T12:31:23.492Z,1.53
2023-02-25T12:33:52.099Z,0.60
2023-02-25T12:36:07.599Z,1.20
2023-02-25T12:38:34.155Z,1.70
2023-02-25T12:40:51.026Z,2.70
2023-02-25T12:43:07.393Z,1.90
2023-02-25T12:45:48.543Z,1.70
2023-02-25T12:48:06.108Z,1.10
2023-02-25T12:50:34.082Z,0.97
2023-02-25T12:52:52.712Z,2.13
2023-02-25T12:55:21.033Z,4.13
2023-02-25T12:57:39.989Z,3.50
2023-02-25T13:00:23.718Z,2.10
2023-02-25T13:03:08.532Z,1.40
2023-02-25T13:05:55.082Z,0.83
2023-02-25T13:08:16.587Z,3.30
2023-02-25T13:10:44.277Z,1.33
2023-02-25T13:13:00.693Z,1.50
2023-02-25T13:15:10.716Z,2.33
2023-02-25T13:17:35.514Z,3.90
2023-02-25T13:20:06.496Z,2.37
2023-02-25T13:22:24.044Z,2.30
2023-02-25T13:24:39.239Z,1.40
2023-02-25T13:27:15.905Z,2.20
2023-02-25T13:29:32.913Z,1.80
2023-02-25T13:31:48.099Z,3.33
2023-02-25T13:34:10.136Z,2.87
2023-02-25T13:36:29.304Z,1.40
2023-02-25T13:38:49.856Z,2.33
2023-02-25T13:41:04.904Z,3.60
2023-02-25T13:43:39.448Z,1.53
2023-02-25T13:46:02.283Z,6.90
2023-02-25T13:48:22.911Z,9.57
2023-02-25T13:50:43.276Z,7.23
2023-02-25T13:52:59.694Z,5.03
2023-02-25T13:55:34.871Z,5.20
2023-02-25T13:58:01.678Z,2.67
2023-02-25T14:00:35.640Z,2.13
2023-02-25T14:02:56.852Z,7.47
2023-02-25T14:05:23.643Z,3.13
2023-02-25T14:08:11.516Z,2.93
2023-02-25T14:10:34.018Z,3.90
2023-02-25T14:12:49.562Z,3.80
2023-02-25T14:15:11.132Z,3.50
2023-02-25T14:17:35.482Z,2.60
2023-02-25T14:19:48.003Z,2.30
2023-02-25T14:22:31.803Z,2.70
2023-02-25T14:24:44.285Z,3.37
2023-02-25T14:26:57.362Z,1.90
2023-02-25T14:29:13.768Z,3.30
2023-02-25T14:31:23.175Z,7.43
2023-02-25T14:33:50.502Z,3.30
2023-02-25T14:36:10.092Z,2.47
2023-02-25T14:38:15.625Z,2.33
2023-02-25T14:40:30.051Z,3.43
2023-02-25T14:42:49.192Z,2.57
2023-02-25T14:44:59.766Z,1.87
2023-02-25T14:47:08.492Z,4.23
2023-02-25T14:49:20.360Z,4.80
2023-02-25T14:52:08.314Z,2.67
2023-02-25T14:54:49.928Z,0.87
2023-02-25T14:57:03.977Z,3.50
2023-02-25T14:59:40.238Z,2.70
2023-02-25T15:02:20.603Z,3.90
2023-02-25T15:04:57.267Z,3.57
2023-02-25T15:07:16.164Z,3.23
2023-02-25T15:09:39.391Z,1.80
2023-02-25T15:12:01.336Z,2.40
2023-02-25T15:14:29.680Z,3.80
2023-02-25T15:17:19.212Z,2.90
2023-02-25T15:19:44.824Z,1.53
2023-02-25T15:21:49.630Z,1.97
2023-02-25T15:23:53.237Z,1.10
2023-02-25T15:26:22.121Z,1.90
2023-02-25T15:28:41.533Z,1.73
2023-02-25T15:31:34.293Z,3.30
2023-02-25T15:33:40.322Z,3.27
2023-02-25T15:35:58.578Z,2.73
2023-02-25T15:38:08.278Z,2.53
2023-02-25T15:40:44.952Z,2.73
2023-02-25T15:42:50.776Z,2.70
2023-02-25T15:44:54.207Z,1.33
2023-02-25T15:47:33.350Z,1.10
2023-02-25T15:49:38.524Z,3.30
2023-02-25T15:51:44.603Z,3.17
2023-02-25T15:53:49.010Z,3.60
2023-02-25T15:55:54.053Z,3.70
2023-02-25T15:57:57.062Z,8.87
2023-02-25T15:59:59.962Z,3.20
2023-02-25T16:02:03.266Z,2.00
2023-02-25T16:04:29.618Z,3.47
2023-02-25T16:06:40.528Z,2.90
2023-02-25T16:08:50.221Z,4.53
2023-02-25T16:10:57.155Z,1.80
2023-02-25T16:13:01.902Z,2.33
2023-02-25T16:15:06.156Z,3.77
2023-02-25T16:17:18.687Z,3.30
2023-02-25T16:19:25.503Z,9.83
2023-02-25T16:21:37.016Z,1.67
2023-02-25T16:23:42.832Z,4.40
2023-02-25T16:25:53.193Z,2.90
2023-02-25T16:28:04.520Z,2.40
2023-02-25T16:30:13.036Z,1.97
2023-02-25T16:32:27.996Z,2.80
2023-02-25T16:34:36.872Z,2.17
2023-02-25T16:36:47.281Z,5.50
2023-02-25T16:38:58.216Z,8.80
2023-02-25T16:41:02.031Z,9.13
2023-02-25T16:43:05.833Z,4.53
2023-02-25T16:45:10.003Z,4.43
2023-02-25T16:47:24.524Z,2.93
2023-02-25T16:49:32.588Z,5.13
2023-02-25T16:51:38.657Z,5.23
2023-02-25T16:53:45.357Z,5.07
2023-02-25T16:55:50.400Z,3.07
2023-02-25T16:58:03.106Z,5.70
2023-02-25T17:00:15.953Z,6.50
2023-02-25T17:02:25.236Z,5.10
2023-02-25T17:04:31.280Z,4.33
2023-02-25T17:06:34.251Z,3.70
2023-02-25T17:08:37.242Z,3.57
2023-02-25T17:10:46.007Z,3.07
2023-02-25T17:12:50.330Z,5.23
2023-02-25T17:14:54.950Z,3.33
2023-02-25T17:16:59.006Z,6.27
2023-02-25T17:19:04.322Z,5.63
2023-02-25T17:21:10.189Z,6.70
2023-02-25T17:23:15.393Z,5.10
2023-02-25T17:25:19.214Z,7.30
2023-02-25T17:27:23.517Z,6.93
2023-02-25T17:29:35.968Z,7.37
2023-02-25T17:31:46.015Z,7.90
2023-02-25T17:33:51.932Z,3.20
2023-02-25T17:35:58.496Z,5.53
2023-02-25T17:38:01.645Z,3.47
2023-02-25T17:40:09.107Z,2.17
2023-02-25T17:42:35.483Z,4.17
2023-02-25T17:44:47.176Z,7.90
2023-02-25T17:46:52.635Z,5.00
2023-02-25T17:48:59.047Z,2.33
2023-02-25T17:51:05.913Z,4.77
2023-02-25T17:53:29.332Z,5.57
2023-02-25T17:55:36.034Z,5.73
2023-02-25T17:57:44.673Z,2.83
2023-02-25T17:59:53.224Z,4.33
2023-02-25T18:01:57.924Z,4.47
2023-02-25T18:04:07.005Z,4.87
2023-02-25T18:06:35.507Z,3.17
2023-02-25T18:08:52.534Z,8.40
2023-02-25T18:11:03.310Z,2.63
2023-02-25T18:13:06.413Z,3.80
2023-02-25T18:15:18.260Z,5.13
2023-02-25T18:17:26.728Z,3.77
2023-02-25T18:19:40.226Z,5.13
2023-02-25T18:21:43.650Z,6.80
2023-02-25T18:23:47.042Z,5.00
2023-02-25T18:26:10.370Z,3.70
2023-02-25T18:28:15.051Z,7.27
2023-02-25T18:30:24.054Z,5.27
2023-02-25T18:32:27.657Z,5.07
2023-02-25T18:34:30.736Z,5.63
2023-02-25T18:36:34.067Z,7.83
2023-02-25T18:38:37.666Z,5.50
2023-02-25T18:40:42.168Z,6.97
2023-02-25T18:42:45.078Z,12.60
2023-02-25T18:44:48.569Z,6.37
2023-02-25T18:46:52.745Z,4.03
2023-02-25T18:48:55.701Z,6.30
2023-02-25T18:50:58.706Z,6.73
2023-02-25T18:53:02.121Z,10.20
2023-02-25T18:55:06.403Z,5.27
2023-02-25T18:57:17.941Z,10.80
2023-02-25T18:59:20.951Z,9.60
2023-02-25T19:01:25.996Z,7.60
2023-02-25T19:03:34.109Z,6.17
2023-02-25T19:05:37.095Z,9.27
2023-02-25T19:07:39.983Z,7.30
2023-02-25T19:09:42.763Z,11.97
2023-02-25T19:11:45.872Z,6.50
2023-02-25T19:13:48.795Z,14.37
2023-02-25T19:15:51.900Z,21.70
2023-02-25T19:17:54.705Z,14.30
2023-02-25T19:19:59.424Z,16.77
2023-02-25T19:22:02.451Z,20.73
2023-02-25T19:24:06.632Z,6.83
2023-02-25T19:26:09.659Z,3.47
2023-02-25T19:28:13.221Z,8.03
2023-02-25T19:30:17.762Z,6.73
2023-02-25T19:32:22.096Z,4.13
2023-02-25T19:34:25.528Z,5.97
2023-02-25T19:36:30.058Z,4.50
2023-02-25T19:38:33.039Z,4.50
2023-02-25T19:40:37.144Z,4.37
2023-02-25T19:42:40.762Z,6.03
2023-02-25T19:44:43.749Z,4.97
2023-02-25T19:46:46.995Z,5.00
2023-02-25T19:48:49.980Z,3.93
2023-02-25T19:50:52.910Z,7.23
2023-02-25T19:52:57.347Z,5.23
2023-02-25T19:55:00.350Z,4.03
2023-02-25T19:57:03.781Z,6.00
2023-02-25T19:59:08.395Z,6.43
2023-02-25T20:01:11.836Z,5.53
2023-02-25T20:03:15.749Z,6.70
2023-02-25T20:05:19.002Z,5.90
2023-02-25T20:07:22.215Z,4.40
2023-02-25T20:09:26.910Z,4.20
2023-02-25T20:11:29.770Z,5.87
2023-02-25T20:13:32.757Z,6.97
2023-02-25T20:15:37.255Z,7.33
2023-02-25T20:17:41.869Z,5.50
2023-02-25T20:19:45.124Z,4.97
2023-02-25T20:21:48.226Z,7.50
2023-02-25T20:23:51.981Z,10.03
2023-02-25T20:26:05.786Z,7.13
2023-02-25T20:28:08.758Z,7.17
2023-02-25T20:30:14.740Z,4.60
2023-02-25T20:32:18.579Z,6.23
2023-02-25T20:34:23.604Z,3.27
2023-02-25T20:36:29.154Z,7.00
2023-02-25T20:38:36.142Z,7.20
2023-02-25T20:40:39.272Z,6.60
2023-02-25T20:42:43.943Z,7.27
2023-02-25T20:44:47.799Z,7.17
2023-02-25T20:46:52.016Z,10.57
2023-02-25T20:48:55.604Z,8.13
2023-02-25T20:50:59.348Z,8.73
2023-02-25T20:53:02.771Z,8.30
2023-02-25T20:55:06.928Z,5.43
2023-02-25T20:57:13.062Z,5.67
2023-02-25T20:59:18.771Z,6.17
2023-02-25T21:01:22.018Z,3.90
2023-02-25T21:03:25.011Z,5.87
2023-02-25T21:05:27.853Z,9.13
2023-02-25T21:07:30.912Z,9.97
2023-02-25T21:09:34.422Z,8.07
2023-02-25T21:11:37.208Z,5.03
2023-02-25T21:13:40.285Z,9.20
2023-02-25T21:15:44.991Z,9.53
2023-02-25T21:17:47.920Z,8.60
2023-02-25T21:19:50.852Z,7.13
2023-02-25T21:21:53.859Z,15.17
2023-02-25T21:23:56.665Z,10.00
2023-02-25T21:25:59.907Z,8.70
2023-02-25T21:28:02.909Z,8.17
2023-02-25T21:30:07.390Z,6.47
2023-02-25T21:32:11.650Z,8.33
2023-02-25T21:34:15.087Z,5.83
2023-02-25T21:36:18.272Z,6.53
2023-02-25T21:38:21.960Z,6.63
2023-02-25T21:40:25.015Z,7.77
2023-02-25T21:42:27.796Z,5.70
2023-02-25T21:44:31.145Z,10.90
2023-02-25T21:46:34.048Z,10.27
2023-02-25T21:48:38.847Z,7.33
2023-02-25T21:50:46.033Z,5.80
2023-02-25T21:52:49.724Z,8.87
2023-02-25T21:54:52.950Z,6.60
2023-02-25T21:56:55.901Z,5.67
2023-02-25T21:59:00.444Z,7.33
2023-02-25T22:01:12.733Z,8.30
2023-02-25T22:03:15.691Z,7.57
2023-02-25T22:05:20.476Z,4.87
2023-02-25T22:07:23.580Z,5.23
2023-02-25T22:09:26.584Z,6.63
2023-02-25T22:11:31.379Z,3.73
2023-02-25T22:13:35.401Z,6.67
2023-02-25T22:15:38.360Z,4.97
2023-02-25T22:17:41.397Z,6.47
2023-02-25T22:19:44.704Z,6.77
2023-02-25T22:21:48.945Z,5.70
2023-02-25T22:23:53.961Z,9.47
2023-02-25T22:25:56.882Z,5.77
2023-02-25T22:27:59.772Z,6.80
2023-02-25T22:30:02.793Z,7.80
2023-02-25T22:32:05.746Z,7.87
2023-02-25T22:34:09.169Z,7.37
2023-02-25T22:36:13.192Z,9.37
2023-02-25T22:38:17.356Z,7.57
2023-02-25T22:40:23.423Z,13.17
2023-02-25T22:42:26.571Z,5.83
2023-02-25T22:44:29.476Z,6.57
2023-02-25T22:46:36.009Z,4.83
2023-02-25T22:48:40.432Z,4.73
2023-02-25T22:50:48.306Z,9.10
2023-02-25T22:52:51.213Z,6.10
2023-02-25T22:54:55.418Z,6.40
2023-02-25T22:56:58.413Z,6.50
2023-02-25T22:59:01.635Z,6.97
2023-02-25T23:01:04.561Z,4.87
2023-02-25T23:03:08.458Z,5.07
2023-02-25T23:05:11.600Z,3.33
2023-02-25T23:07:14.387Z,5.50
2023-02-25T23:09:18.018Z,4.90
2023-02-25T23:11:24.628Z,7.13
2023-02-25T23:13:27.560Z,4.93
2023-02-25T23:15:30.511Z,5.00
2023-02-25T23:17:33.466Z,5.07
2023-02-25T23:19:36.301Z,4.83
2023-02-25T23:21:39.642Z,4.70
2023-02-25T23:23:42.786Z,9.50
2023-02-25T23:25:52.337Z,4.03
2023-02-25T23:27:57.437Z,5.43
2023-02-25T23:30:00.501Z,6.43
2023-02-25T23:32:03.796Z,2.43
2023-02-25T23:34:09.797Z,5.57
2023-02-25T23:36:12.926Z,6.33
2023-02-25T23:38:15.739Z,3.97
2023-02-25T23:40:19.213Z,5.60
2023-02-25T23:42:22.046Z,9.53
2023-02-25T23:44:26.888Z,4.07
2023-02-25T23:46:31.271Z,4.27
2023-02-25T23:48:34.531Z,6.07
2023-02-25T23:50:37.338Z,7.33
2023-02-25T23:52:40.314Z,8.37
2023-02-25T23:54:43.121Z,5.17
2023-02-25T23:56:46.630Z,5.20
2023-02-25T23:58:51.048Z,4.50
